Portada
METAR-TAF:

METAR-TAF

Aeroports :

Plataforma petroliera

Euro, Països Baixos

latitud: 51-59-52N, longitud: 3-16-30E, altitud: 18 m

Observació

L'informe es va fer fa 33 minuts, a les 16:25 UTC
Vent 21 kt del Sud-Oest
Temperatura 11°C
Humitat 66%
Pressió 1013 hPa
Visibilitat 10 km o més

METAR: EHSA 071625Z AUTO 23021KT 9999 ///////// 11/05 Q1013 W08/H15

Hora: 17:58 (16:58 UTC)


TAF: manca

Observacions i pronòstics meteorològics de més de 4000 aeroports (METAR i TAF).

Les estacions disponibles són els punts grocs i vermells al mapa.

Posi el ratolí al punt desitjat per veure el nom de l'estació.

Feu clic per veure les observacions i els pronòstics meteorològics.

Per canviar el mapa: feu clic els botons verds amb una creu de color negre per apropar; al botó verd amb un guió per allunyar la imatge; o en les fletxes verdes per a mapes adjacents.


METAR-TAF: